Peytonsburg, Kentucky
Current Conditions -  °F | °C
As of 6:56 AM on Friday 19 Dec 2014 (Local Time) from KEKQ Reporting Station
Haze Haze  
Wind Chill: 25°   Ceiling: Unl
Heat Index: 25°   Visibility: 2.5mi
Dew Point: 24°   Wind: 0mph
Humidity: 96%   Direction: NA
Pressure: 30.28"   Gusts: NA
Location:  36.7332°N, 85.3312°W
Report Text: KEKQ 191256Z AUTO 00000KT 2 1/2SM BR CLR M04/M04 A3028 RMK AO2 T10381044 SLP265
Loading
Personal Weather Stations






























Interactive Weather Map New forecast layout! Learn more

10-Day Weather Forecast

Advertisements
Track Severe Weather on mobile